Time;durP1;ratioP1;P1;durP2;ratioP2;P2;SDS_P1;SDS_P2;PMS_P1;PMS_P2;Temp;Humidity;BMP_temperature;BMP_pressure;BME280_temperature;BME280_humidity;BME280_pressure;Samples;Min_cycle;Max_cycle;Signal;HPM_P1;HPM_P2
2021/12/19 00:01:05;;;;;;;;;;;;;;;22.56;20.69;98378.94;5079586;28;917;-76
2021/12/19 00:09:00;;;;;;;;;;;;;;;22.20;21.12;98374.13;5079749;28;963;-76
2021/12/19 00:11:26;;;;;;;;;;;;;;;21.41;22.20;98377.03;5079539;28;1906;-76
2021/12/19 00:13:52;;;;;;;;;;;;;;;21.38;22.59;98380.72;5079331;28;1000;-76
2021/12/19 00:16:17;;;;;;;;;;;;;;;22.30;21.36;98378.75;5093927;28;945;-76
2021/12/19 00:18:44;;;;;;;;;;;;;;;22.76;20.65;98371.16;5079396;28;927;-76
2021/12/19 00:21:11;;;;;;;;;;;;;;;22.33;21.18;98383.53;5078959;28;1068;-76
2021/12/19 00:23:37;;;;;;;;;;;;;;;21.51;21.96;98387.34;5079288;28;916;-76
2021/12/19 00:26:02;;;;;;;;;;;;;;;21.93;21.42;98384.84;5079048;28;1074;-76
2021/12/19 00:28:28;;;;;;;;;;;;;;;22.51;20.72;98370.97;5079260;28;846;-76
2021/12/19 00:30:53;;;;;;;;;;;;;;;22.55;20.69;98371.69;5078830;28;1905;-76
2021/12/19 00:33:19;;;;;;;;;;;;;;;22.48;21.09;98354.81;5093727;28;1065;-76
2021/12/19 00:35:44;;;;;;;;;;;;;;;22.42;21.04;98351.72;5079012;28;985;-76
2021/12/19 00:38:09;;;;;;;;;;;;;;;22.40;20.99;98347.75;5078746;28;823;-76
2021/12/19 00:40:37;;;;;;;;;;;;;;;22.42;21.16;98348.09;5078942;28;931;-76
2021/12/19 00:43:05;;;;;;;;;;;;;;;22.39;20.94;98340.50;5078609;28;970;-76
2021/12/19 00:45:33;;;;;;;;;;;;;;;21.87;21.60;98335.59;5078925;28;904;-75
2021/12/19 00:47:59;;;;;;;;;;;;;;;21.72;21.89;98327.41;5056463;28;1002;-76
2021/12/19 00:50:25;;;;;;;;;;;;;;;21.63;21.88;98330.03;5056606;28;1914;-76
2021/12/19 00:52:50;;;;;;;;;;;;;;;22.25;21.02;98324.63;5055809;28;1375;-76
2021/12/19 00:55:16;;;;;;;;;;;;;;;22.24;21.17;98323.03;5056255;28;1029;-76
2021/12/19 00:57:42;;;;;;;;;;;;;;;22.41;20.70;98321.78;5056255;28;956;-75
2021/12/19 01:00:07;;;;;;;;;;;;;;;22.25;21.22;98319.75;5056278;28;1003;-76
2021/12/19 01:02:33;;;;;;;;;;;;;;;22.27;21.09;98322.91;5056267;28;1161;-76
2021/12/19 01:04:59;;;;;;;;;;;;;;;22.28;21.04;98324.53;5055727;28;1110;-76
2021/12/19 01:07:24;;;;;;;;;;;;;;;22.29;21.21;98320.47;5056654;28;979;-76
2021/12/19 01:09:49;;;;;;;;;;;;;;;22.29;21.09;98311.16;5055909;28;986;-76
2021/12/19 01:12:15;;;;;;;;;;;;;;;22.14;21.31;98313.53;5056133;28;1984;-76
2021/12/19 01:14:40;;;;;;;;;;;;;;;21.50;22.00;98315.75;5055635;28;1128;-76
2021/12/19 01:17:07;;;;;;;;;;;;;;;21.09;22.61;98316.16;5055867;28;994;-76
2021/12/19 01:19:33;;;;;;;;;;;;;;;22.02;21.31;98314.19;5072922;28;1009;-76
2021/12/19 01:21:58;;;;;;;;;;;;;;;22.56;20.50;98308.03;5078196;28;1122;-77
2021/12/19 01:24:24;;;;;;;;;;;;;;;22.72;20.48;98299.50;5078519;28;1051;-76
2021/12/19 01:26:49;;;;;;;;;;;;;;;22.34;20.94;98300.09;5077956;28;973;-76
2021/12/19 01:29:15;;;;;;;;;;;;;;;21.88;21.45;98294.69;5078313;28;887;-76
2021/12/19 01:31:40;;;;;;;;;;;;;;;22.07;21.29;98302.31;5077523;28;1972;-76
2021/12/19 01:34:06;;;;;;;;;;;;;;;22.08;21.25;98287.72;5055743;28;953;-76
2021/12/19 01:36:31;;;;;;;;;;;;;;;22.11;21.25;98291.72;5055523;28;1153;-75
2021/12/19 01:38:57;;;;;;;;;;;;;;;22.14;21.14;98290.88;5055132;28;987;-75
2021/12/19 01:41:22;;;;;;;;;;;;;;;21.99;21.29;98290.38;5055697;28;1010;-75
2021/12/19 01:43:48;;;;;;;;;;;;;;;22.09;21.29;98282.84;5055392;28;927;-76
2021/12/19 01:46:13;;;;;;;;;;;;;;;21.91;21.21;98288.13;5055251;28;1026;-76
2021/12/19 01:48:39;;;;;;;;;;;;;;;21.63;21.65;98287.56;5055310;28;1008;-76
2021/12/19 01:51:04;;;;;;;;;;;;;;;22.02;21.13;98283.00;5055407;28;1910;-76
2021/12/19 01:53:30;;;;;;;;;;;;;;;22.11;21.14;98277.56;5055094;28;969;-76
2021/12/19 01:55:55;;;;;;;;;;;;;;;22.03;21.00;98268.41;5055711;28;956;-76
2021/12/19 01:58:21;;;;;;;;;;;;;;;22.02;21.09;98258.34;5055238;28;1103;-76
2021/12/19 02:00:48;;;;;;;;;;;;;;;22.14;20.98;98262.53;5054917;28;1027;-76
2021/12/19 02:03:14;;;;;;;;;;;;;;;22.20;21.17;98268.47;5055040;28;1104;-76
2021/12/19 02:05:40;;;;;;;;;;;;;;;22.14;21.05;98259.69;5071275;28;999;-76
2021/12/19 02:08:06;;;;;;;;;;;;;;;21.95;21.17;98254.84;5091788;28;922;-76
2021/12/19 02:10:34;;;;;;;;;;;;;;;21.89;21.37;98250.97;5076953;28;1909;-76
2021/12/19 02:13:03;;;;;;;;;;;;;;;22.30;20.83;98242.66;5077111;28;996;-76
2021/12/19 02:15:29;;;;;;;;;;;;;;;22.03;21.13;98239.28;5077150;28;904;-76
2021/12/19 02:17:55;;;;;;;;;;;;;;;21.83;21.42;98237.31;5054703;28;983;-77
2021/12/19 02:20:21;;;;;;;;;;;;;;;22.41;20.48;98235.94;5054430;28;1082;-76
2021/12/19 02:22:46;;;;;;;;;;;;;;;22.46;20.49;98232.56;5054763;28;958;-76
2021/12/19 02:25:14;;;;;;;;;;;;;;;21.93;21.05;98234.69;5021044;28;1044;-76
2021/12/19 02:27:39;;;;;;;;;;;;;;;22.18;21.10;98234.09;5054613;28;966;-76
2021/12/19 02:30:08;;;;;;;;;;;;;;;22.26;20.58;98219.28;5054674;28;984;-76
2021/12/19 02:32:35;;;;;;;;;;;;;;;22.25;20.67;98223.38;5037511;28;1969;-76
2021/12/19 02:35:04;;;;;;;;;;;;;;;22.07;20.88;98217.31;5037654;28;1010;-76
2021/12/19 02:48:38;;;;;;;;;;;;;;;22.23;20.95;98213.72;4963767;28;1105;-76
2021/12/19 02:51:03;;;;;;;;;;;;;;;22.03;21.11;98210.97;4959263;28;1971;-76
2021/12/19 02:53:35;;;;;;;;;;;;;;;21.68;21.33;98210.56;4975163;28;1148;-76
2021/12/19 02:56:01;;;;;;;;;;;;;;;22.32;20.53;98211.84;4975346;28;1004;-76
2021/12/19 02:58:27;;;;;;;;;;;;;;;22.18;20.62;98206.56;4955880;28;1081;-77
2021/12/19 03:00:53;;;;;;;;;;;;;;;22.27;20.84;98209.53;4936592;29;1340;-76
2021/12/19 03:03:18;;;;;;;;;;;;;;;22.23;20.64;98206.03;4936811;29;1036;-76
2021/12/19 03:05:44;;;;;;;;;;;;;;;21.78;20.83;98195.38;4936791;29;1032;-76
2021/12/19 03:08:12;;;;;;;;;;;;;;;22.01;20.76;98191.53;4920581;29;1194;-77
2021/12/19 03:18:33;;;;;;;;;;;;;;;22.06;20.97;98190.22;4937567;28;980;-76
2021/12/19 03:20:58;;;;;;;;;;;;;;;22.12;20.97;98185.63;4975051;28;1018;-76
2021/12/19 03:23:24;;;;;;;;;;;;;;;21.82;21.18;98190.41;4990648;28;962;-76
2021/12/19 03:25:49;;;;;;;;;;;;;;;22.20;20.68;98187.06;5013765;28;1205;-76
2021/12/19 03:28:17;;;;;;;;;;;;;;;22.24;20.95;98192.63;5014064;28;1030;-76
2021/12/19 03:30:43;;;;;;;;;;;;;;;21.76;21.16;98192.19;4998146;28;1906;-76
2021/12/19 03:33:09;;;;;;;;;;;;;;;22.12;20.80;98199.81;4994333;28;1172;-76
2021/12/19 03:35:35;;;;;;;;;;;;;;;22.14;21.03;98188.84;4989445;28;1105;-76
2021/12/19 03:38:01;;;;;;;;;;;;;;;21.63;21.64;98184.81;5013729;28;1014;-75
2021/12/19 03:40:36;;;;;;;;;;;;;;;21.59;21.33;98187.72;5014064;28;1040;-76
2021/12/19 03:43:11;;;;;;;;;;;;;;;21.85;21.11;98183.84;5014081;28;1018;-76
2021/12/19 03:45:36;;;;;;;;;;;;;;;21.56;21.47;98177.31;5013762;28;920;-76
2021/12/19 03:48:04;;;;;;;;;;;;;;;22.21;20.84;98182.97;4993716;28;1876;-76
2021/12/19 03:50:35;;;;;;;;;;;;;;;22.10;20.88;98177.59;4955307;29;1993;-76
2021/12/19 03:53:00;;;;;;;;;;;;;;;22.26;20.77;98173.94;4939182;29;1112;-76
2021/12/19 03:55:27;;;;;;;;;;;;;;;21.76;21.46;98168.72;4955484;29;1012;-76
2021/12/19 03:57:52;;;;;;;;;;;;;;;21.92;21.34;98165.09;4935784;29;1169;-76
2021/12/19 04:00:22;;;;;;;;;;;;;;;22.14;20.91;98163.34;4936250;29;979;-76
2021/12/19 04:02:50;;;;;;;;;;;;;;;21.89;21.33;98163.16;4919996;29;973;-76
2021/12/19 04:05:15;;;;;;;;;;;;;;;22.02;21.05;98166.84;4936090;29;1001;-76
2021/12/19 04:07:41;;;;;;;;;;;;;;;22.23;20.65;98160.66;4991662;28;982;-76
2021/12/19 04:10:06;;;;;;;;;;;;;;;22.26;21.08;98156.94;4994113;28;1176;-76
2021/12/19 04:12:32;;;;;;;;;;;;;;;22.80;19.95;98156.25;4977612;28;1906;-76
2021/12/19 04:14:57;;;;;;;;;;;;;;;22.02;21.03;98152.66;4993780;28;987;-76
2021/12/19 04:17:23;;;;;;;;;;;;;;;22.26;20.70;98151.25;4994078;28;1140;-76
2021/12/19 04:19:49;;;;;;;;;;;;;;;22.41;20.63;98163.00;4994018;28;1056;-77
2021/12/19 04:22:14;;;;;;;;;;;;;;;21.57;21.55;98156.22;4994254;28;922;-76
2021/12/19 04:24:42;;;;;;;;;;;;;;;22.00;21.35;98153.13;4988123;28;1550;-76
2021/12/19 04:27:07;;;;;;;;;;;;;;;21.90;21.27;98151.38;5027381;28;1202;-76
2021/12/19 04:29:33;;;;;;;;;;;;;;;21.96;21.42;98151.63;5016473;28;928;-76
2021/12/19 04:31:59;;;;;;;;;;;;;;;21.82;21.53;98139.44;5015554;28;2015;-76
2021/12/19 04:34:24;;;;;;;;;;;;;;;21.74;21.54;98142.88;5004338;28;1258;-76
2021/12/19 04:36:56;;;;;;;;;;;;;;;21.23;22.05;98148.09;5008131;28;1242;-76
2021/12/19 04:39:35;;;;;;;;;;;;;;;21.43;21.99;98145.25;5009280;28;1245;-76
2021/12/19 04:57:51;;;;;;;;;;;;;;;21.44;22.20;98135.50;4996658;28;1021;-76
2021/12/19 05:00:40;;;;;;;;;;;;;;;21.44;21.90;98133.47;5004081;28;980;-76
2021/12/19 05:03:28;;;;;;;;;;;;;;;21.40;22.25;98134.78;4957882;29;1195;-76
2021/12/19 05:16:32;;;;;;;;;;;;;;;21.22;22.38;98113.34;4919450;29;960;-76
2021/12/19 05:19:08;;;;;;;;;;;;;;;21.40;22.44;98106.47;4903819;29;1042;-76
2021/12/19 05:21:36;;;;;;;;;;;;;;;20.89;23.11;98100.38;4919697;29;959;-76
2021/12/19 05:26:27;;;;;;;;;;;;;;;21.49;22.21;98103.84;4865034;29;968;-76
2021/12/19 05:28:53;;;;;;;;;;;;;;;21.71;21.84;98098.44;4900110;29;1132;-76
2021/12/19 05:31:21;;;;;;;;;;;;;;;21.57;22.21;98099.59;4900349;29;1982;-76
2021/12/19 05:33:47;;;;;;;;;;;;;;;20.96;22.73;98092.50;4894563;29;980;-76
2021/12/19 05:45:11;;;;;;;;;;;;;;;21.37;22.46;98090.41;4931166;29;1046;-77
2021/12/19 05:46:53;;;;;;;;;;;;;;;21.04;22.72;98087.50;4956688;29;1010;-76
2021/12/19 05:49:19;;;;;;;;;;;;;;;21.22;22.67;98076.56;4956992;29;1120;-75
2021/12/19 05:51:44;;;;;;;;;;;;;;;21.20;22.45;98083.91;4937388;29;1906;-76
2021/12/19 05:54:10;;;;;;;;;;;;;;;21.51;21.81;98079.53;4969582;28;1015;-76
2021/12/19 05:56:36;;;;;;;;;;;;;;;21.29;22.31;98079.19;4937585;29;1050;-76
2021/12/19 05:59:01;;;;;;;;;;;;;;;21.12;22.66;98080.44;4937844;29;980;-76
2021/12/19 06:01:27;;;;;;;;;;;;;;;20.74;23.12;98071.63;4956516;29;1030;-76
2021/12/19 06:03:52;;;;;;;;;;;;;;;20.93;22.86;98084.09;4963639;28;969;-76
2021/12/19 06:06:18;;;;;;;;;;;;;;;20.69;23.26;98081.41;5012420;28;973;-76
2021/12/19 06:08:43;;;;;;;;;;;;;;;21.54;22.19;98084.28;4995478;28;1105;-76
2021/12/19 06:11:10;;;;;;;;;;;;;;;21.58;22.06;98076.50;4999890;28;1910;-76
2021/12/19 06:13:37;;;;;;;;;;;;;;;21.19;22.58;98074.63;5054901;28;974;-76
2021/12/19 06:16:03;;;;;;;;;;;;;;;21.28;22.24;98077.63;5054505;28;984;-76
2021/12/19 06:18:29;;;;;;;;;;;;;;;22.51;20.81;98087.41;5054500;28;1034;-76
2021/12/19 06:20:54;;;;;;;;;;;;;;;22.71;20.50;98076.69;5054931;28;1044;-76
2021/12/19 06:23:20;;;;;;;;;;;;;;;22.11;21.26;98076.38;5069490;28;1005;-76
2021/12/19 06:25:46;;;;;;;;;;;;;;;21.82;21.62;98082.78;5074694;28;1109;-76
2021/12/19 06:28:12;;;;;;;;;;;;;;;22.35;20.80;98074.88;5074490;28;966;-76
2021/12/19 06:30:37;;;;;;;;;;;;;;;21.91;21.70;98072.84;5074517;28;1987;-76
2021/12/19 06:33:03;;;;;;;;;;;;;;;22.02;21.79;98073.34;5075860;28;1029;-76
2021/12/19 06:35:30;;;;;;;;;;;;;;;21.81;21.79;98071.88;5076497;28;923;-76
2021/12/19 06:37:55;;;;;;;;;;;;;;;21.03;23.05;98066.09;5076326;28;947;-76
2021/12/19 06:40:21;;;;;;;;;;;;;;;21.20;22.79;98067.72;5076278;28;983;-77
2021/12/19 06:42:47;;;;;;;;;;;;;;;21.52;22.31;98058.47;5076449;28;941;-76
2021/12/19 06:45:12;;;;;;;;;;;;;;;21.02;22.89;98059.63;5076594;28;946;-76
2021/12/19 06:47:38;;;;;;;;;;;;;;;21.12;22.94;98051.34;5076599;28;890;-76
2021/12/19 06:50:03;;;;;;;;;;;;;;;21.71;22.25;98045.44;5076327;28;946;-76
2021/12/19 06:52:29;;;;;;;;;;;;;;;21.88;21.80;98046.22;5040578;28;2258;-76
2021/12/19 06:54:54;;;;;;;;;;;;;;;21.70;22.11;98046.66;5076083;28;904;-76
2021/12/19 06:57:20;;;;;;;;;;;;;;;21.35;22.20;98039.09;5076697;28;1019;-76
2021/12/19 06:59:47;;;;;;;;;;;;;;;21.36;22.35;98043.53;5075424;28;954;-76
2021/12/19 07:02:14;;;;;;;;;;;;;;;21.54;22.13;98038.19;5076700;28;891;-76
2021/12/19 07:04:40;;;;;;;;;;;;;;;20.98;22.86;98044.78;5033647;28;1159;-76
2021/12/19 07:07:06;;;;;;;;;;;;;;;21.06;22.64;98042.59;5033951;28;1157;-76
2021/12/19 07:09:31;;;;;;;;;;;;;;;20.60;23.37;98038.78;5033596;28;966;-76
2021/12/19 07:11:57;;;;;;;;;;;;;;;21.50;22.03;98037.47;5033223;28;1977;-76
2021/12/19 07:14:22;;;;;;;;;;;;;;;21.46;22.42;98025.47;5033673;28;933;-75
2021/12/19 07:16:48;;;;;;;;;;;;;;;21.77;21.86;98023.84;5033457;28;1110;-76
2021/12/19 07:19:13;;;;;;;;;;;;;;;21.24;22.75;98025.16;5034007;28;1038;-76
2021/12/19 07:21:39;;;;;;;;;;;;;;;21.61;22.31;98018.22;5033696;28;944;-76
2021/12/19 07:24:04;;;;;;;;;;;;;;;20.68;23.43;98005.50;5034038;28;911;-76
2021/12/19 07:26:30;;;;;;;;;;;;;;;21.19;22.80;98012.38;5034017;28;1075;-76
2021/12/19 07:28:56;;;;;;;;;;;;;;;20.59;23.45;98006.09;5033838;28;1005;-76
2021/12/19 07:31:22;;;;;;;;;;;;;;;21.53;22.41;98005.47;5033334;28;1960;-76
2021/12/19 07:33:47;;;;;;;;;;;;;;;21.22;22.87;98005.03;5033365;28;1003;-76
2021/12/19 07:36:13;;;;;;;;;;;;;;;21.46;22.32;98005.66;5065320;28;963;-76
2021/12/19 07:38:50;;;;;;;;;;;;;;;20.68;23.41;98011.16;5075794;28;947;-76
2021/12/19 07:41:16;;;;;;;;;;;;;;;21.25;22.55;98010.59;5073841;28;1104;-76
2021/12/19 07:43:42;;;;;;;;;;;;;;;21.18;22.67;98016.41;5075508;28;977;-76
2021/12/19 07:46:07;;;;;;;;;;;;;;;21.00;22.89;98010.41;5075918;28;970;-76
2021/12/19 07:48:32;;;;;;;;;;;;;;;20.86;23.38;98010.75;5075370;28;920;-76
2021/12/19 07:50:58;;;;;;;;;;;;;;;21.33;22.39;98005.56;5075381;28;1953;-76
2021/12/19 07:53:24;;;;;;;;;;;;;;;21.43;22.37;98003.72;5075668;28;912;-76
2021/12/19 07:55:49;;;;;;;;;;;;;;;21.00;22.90;98004.75;5052740;28;986;-76
2021/12/19 07:58:15;;;;;;;;;;;;;;;21.23;22.78;97998.91;5020895;28;1319;-76
2021/12/19 08:00:40;;;;;;;;;;;;;;;21.27;22.85;97996.78;5040690;28;964;-76
2021/12/19 08:03:06;;;;;;;;;;;;;;;21.31;22.54;97991.88;5057114;28;1070;-76
2021/12/19 08:05:31;;;;;;;;;;;;;;;21.46;22.44;97985.84;5056896;28;983;-76
2021/12/19 08:08:01;;;;;;;;;;;;;;;21.41;22.54;97972.22;5057021;28;1035;-76
2021/12/19 08:12:59;;;;;;;;;;;;;;;21.29;22.56;97976.53;5057149;28;1930;-76
2021/12/19 08:15:24;;;;;;;;;;;;;;;21.35;22.56;97965.50;5056724;28;1038;-76
2021/12/19 08:17:49;;;;;;;;;;;;;;;21.47;22.26;97959.13;5057079;28;973;-76
2021/12/19 08:20:17;;;;;;;;;;;;;;;21.32;22.40;97953.84;5056580;28;981;-76
2021/12/19 08:22:43;;;;;;;;;;;;;;;21.07;22.56;97937.47;5056415;28;991;-76
2021/12/19 08:25:08;;;;;;;;;;;;;;;21.84;22.01;97933.00;5056961;28;966;-76
2021/12/19 08:27:34;;;;;;;;;;;;;;;21.47;21.93;97947.81;5074749;28;1161;-76
2021/12/19 08:30:00;;;;;;;;;;;;;;;21.45;22.22;97939.75;5079043;28;995;-76
2021/12/19 08:32:25;;;;;;;;;;;;;;;21.31;22.40;97946.59;5078769;28;1906;-76
2021/12/19 08:34:51;;;;;;;;;;;;;;;21.31;22.27;97935.28;5094110;28;1100;-76
2021/12/19 08:37:16;;;;;;;;;;;;;;;21.96;21.71;97933.47;5078739;28;908;-76
2021/12/19 08:39:42;;;;;;;;;;;;;;;21.61;21.94;97936.09;5078793;28;1084;-76
2021/12/19 08:42:09;;;;;;;;;;;;;;;21.42;22.16;97932.16;5076554;28;932;-76
2021/12/19 08:44:34;;;;;;;;;;;;;;;21.51;22.31;97931.53;5078922;28;951;-76
2021/12/19 08:47:00;;;;;;;;;;;;;;;21.33;22.55;97926.31;5078492;28;1015;-76
2021/12/19 08:49:25;;;;;;;;;;;;;;;21.44;22.31;97923.19;5078680;28;983;-76
2021/12/19 08:51:51;;;;;;;;;;;;;;;21.37;22.36;97917.75;5078704;28;2050;-76
2021/12/19 08:54:16;;;;;;;;;;;;;;;21.33;22.53;97915.78;5078971;28;940;-76
2021/12/19 08:56:42;;;;;;;;;;;;;;;21.54;22.17;97916.47;5078924;28;971;-76
2021/12/19 08:59:08;;;;;;;;;;;;;;;21.27;22.59;97913.94;5077424;28;905;-76
2021/12/19 09:01:34;;;;;;;;;;;;;;;21.34;22.30;97910.94;5078322;28;926;-76
2021/12/19 09:03:59;;;;;;;;;;;;;;;21.78;21.75;97900.81;5078342;28;895;-76
2021/12/19 09:06:25;;;;;;;;;;;;;;;21.20;22.40;97906.44;5077291;28;907;-76
2021/12/19 09:08:50;;;;;;;;;;;;;;;21.42;22.06;97900.22;5078012;28;934;-76
2021/12/19 09:11:15;;;;;;;;;;;;;;;21.94;21.78;97907.66;5077244;28;1973;-76
2021/12/19 09:13:41;;;;;;;;;;;;;;;21.94;21.32;97901.97;5078339;28;832;-76
2021/12/19 09:16:06;;;;;;;;;;;;;;;21.55;21.96;97904.72;5078009;28;929;-76
2021/12/19 09:18:32;;;;;;;;;;;;;;;21.85;21.71;97897.75;5078099;28;1023;-76
2021/12/19 09:20:57;;;;;;;;;;;;;;;21.81;21.79;97899.91;5076098;28;944;-75
2021/12/19 09:23:23;;;;;;;;;;;;;;;20.54;23.28;97894.34;5078016;28;936;-76
2021/12/19 09:25:48;;;;;;;;;;;;;;;20.98;23.10;97894.06;5078365;28;989;-76
2021/12/19 09:28:14;;;;;;;;;;;;;;;21.01;23.03;97887.53;5078201;28;916;-76
2021/12/19 09:30:40;;;;;;;;;;;;;;;20.99;23.11;97878.72;5077695;28;1910;-76
2021/12/19 09:33:06;;;;;;;;;;;;;;;21.03;22.67;97871.69;5078103;28;836;-76
2021/12/19 09:35:31;;;;;;;;;;;;;;;21.41;22.52;97865.47;5076543;28;888;-76
2021/12/19 09:37:57;;;;;;;;;;;;;;;21.20;22.38;97854.72;5077432;28;912;-76
2021/12/19 09:40:31;;;;;;;;;;;;;;;21.79;22.06;97854.25;5077634;28;999;-75
2021/12/19 09:43:02;;;;;;;;;;;;;;;21.96;21.68;97849.28;5075907;28;1019;-76
2021/12/19 09:45:28;;;;;;;;;;;;;;;21.19;22.73;97848.25;5075646;28;962;-76
2021/12/19 09:47:53;;;;;;;;;;;;;;;21.40;22.28;97834.75;5077397;28;996;-76
2021/12/19 09:50:19;;;;;;;;;;;;;;;21.28;22.29;97828.56;5077113;28;999;-76
2021/12/19 09:52:45;;;;;;;;;;;;;;;21.45;22.50;97820.06;5077275;28;1921;-76
2021/12/19 09:55:11;;;;;;;;;;;;;;;21.29;22.47;97818.84;5076304;28;1005;-76
2021/12/19 09:57:36;;;;;;;;;;;;;;;21.49;22.31;97810.22;5076027;28;1331;-76
2021/12/19 10:00:03;;;;;;;;;;;;;;;21.55;22.44;97802.78;5077196;28;938;-76
2021/12/19 10:02:39;;;;;;;;;;;;;;;21.84;21.78;97801.91;5077056;28;982;-76
2021/12/19 10:05:18;;;;;;;;;;;;;;;21.68;22.05;97780.13;5076926;28;827;-76
2021/12/19 10:07:51;;;;;;;;;;;;;;;21.51;22.25;97784.31;5077294;28;903;-76
2021/12/19 10:10:25;;;;;;;;;;;;;;;21.38;22.35;97780.66;5077087;28;1001;-76
2021/12/19 10:12:51;;;;;;;;;;;;;;;21.98;21.69;97770.31;5076917;28;1901;-76
2021/12/19 10:15:17;;;;;;;;;;;;;;;21.60;22.05;97770.25;5094393;28;1484;-76
2021/12/19 10:17:42;;;;;;;;;;;;;;;21.84;21.79;97767.91;5097071;28;962;-76
2021/12/19 10:20:09;;;;;;;;;;;;;;;21.87;21.74;97755.69;5077892;28;998;-76
2021/12/19 10:22:39;;;;;;;;;;;;;;;21.46;22.49;97753.72;5096866;28;919;-76
2021/12/19 10:25:07;;;;;;;;;;;;;;;21.64;21.86;97750.34;5097236;28;886;-77
2021/12/19 10:27:39;;;;;;;;;;;;;;;21.21;22.62;97746.72;5097023;28;1077;-76
2021/12/19 10:30:09;;;;;;;;;;;;;;;21.87;21.59;97732.25;5095912;28;923;-76
2021/12/19 10:32:34;;;;;;;;;;;;;;;21.49;22.29;97724.50;5096959;28;1978;-76
2021/12/19 10:35:12;;;;;;;;;;;;;;;21.55;22.26;97723.50;5097287;28;1039;-76
2021/12/19 10:37:38;;;;;;;;;;;;;;;21.67;22.09;97730.44;5096808;28;1066;-76
2021/12/19 10:40:03;;;;;;;;;;;;;;;21.62;22.19;97728.16;5096814;28;907;-76
2021/12/19 10:42:34;;;;;;;;;;;;;;;21.94;21.31;97717.84;5077792;28;1002;-76
2021/12/19 10:47:44;;;;;;;;;;;;;;;21.12;22.72;97711.84;5096643;28;927;-76
2021/12/19 10:50:09;;;;;;;;;;;;;;;21.53;22.11;97703.34;5095526;28;925;-76
2021/12/19 10:52:35;;;;;;;;;;;;;;;21.91;21.73;97698.91;5096510;28;1993;-76
2021/12/19 10:55:03;;;;;;;;;;;;;;;21.67;22.11;97690.78;5095178;28;927;-76
2021/12/19 10:57:32;;;;;;;;;;;;;;;21.61;22.18;97686.94;5096343;28;1019;-76
2021/12/19 10:59:58;;;;;;;;;;;;;;;21.44;22.39;97683.41;5095631;28;877;-76
2021/12/19 11:02:36;;;;;;;;;;;;;;;21.62;22.28;97676.41;5073522;28;1368;-76
2021/12/19 11:05:01;;;;;;;;;;;;;;;21.57;22.41;97663.59;5073983;28;1003;-76
2021/12/19 11:07:27;;;;;;;;;;;;;;;21.37;22.48;97654.53;5040080;28;1016;-76
2021/12/19 11:09:52;;;;;;;;;;;;;;;21.47;22.49;97645.72;5057407;28;927;-76
2021/12/19 11:12:18;;;;;;;;;;;;;;;21.16;22.69;97655.97;5057075;28;1987;-76
2021/12/19 11:14:44;;;;;;;;;;;;;;;20.94;23.08;97633.19;5033521;28;1022;-76
2021/12/19 11:17:11;;;;;;;;;;;;;;;20.98;22.77;97634.63;5033797;28;1164;-76
2021/12/19 11:19:37;;;;;;;;;;;;;;;20.85;23.23;97630.22;5033417;28;1000;-76
2021/12/19 11:22:02;;;;;;;;;;;;;;;21.27;22.74;97614.75;5017230;28;1098;-76
2021/12/19 11:24:28;;;;;;;;;;;;;;;21.18;22.72;97611.03;5033648;28;1064;-76
2021/12/19 11:26:54;;;;;;;;;;;;;;;21.91;21.78;97603.41;5034053;28;1094;-76
2021/12/19 11:29:20;;;;;;;;;;;;;;;21.99;21.75;97596.25;5033431;28;1185;-76
2021/12/19 11:31:47;;;;;;;;;;;;;;;21.39;22.34;97592.59;5033525;28;1901;-76
2021/12/19 11:34:18;;;;;;;;;;;;;;;21.55;22.16;97603.78;5039204;28;1018;-76
2021/12/19 11:36:52;;;;;;;;;;;;;;;21.63;22.22;97604.38;5061090;28;969;-76
2021/12/19 11:39:18;;;;;;;;;;;;;;;21.56;22.08;97605.41;5077753;28;1017;-76
2021/12/19 11:42:01;;;;;;;;;;;;;;;21.42;22.12;97589.66;5077930;28;966;-76
2021/12/19 11:44:30;;;;;;;;;;;;;;;21.78;21.70;97583.63;5077471;28;1063;-76
2021/12/19 11:46:56;;;;;;;;;;;;;;;21.67;21.72;97588.84;5097811;28;897;-76
2021/12/19 11:49:25;;;;;;;;;;;;;;;21.28;22.05;97585.22;5077342;28;1062;-76
2021/12/19 11:52:11;;;;;;;;;;;;;;;21.25;22.29;97574.81;5044788;28;2272;-76
2021/12/19 11:54:36;;;;;;;;;;;;;;;21.12;22.70;97585.34;5017100;28;1110;-76
2021/12/19 11:57:05;;;;;;;;;;;;;;;21.50;22.23;97578.88;5017734;28;1008;-76
2021/12/19 11:59:30;;;;;;;;;;;;;;;21.70;21.84;97575.81;5017390;28;1019;-76
2021/12/19 12:02:04;;;;;;;;;;;;;;;21.38;22.52;97571.22;5001468;28;975;-76
2021/12/19 12:04:31;;;;;;;;;;;;;;;21.71;21.82;97555.53;5014862;28;983;-76
2021/12/19 12:06:56;;;;;;;;;;;;;;;21.75;21.76;97556.19;5001547;28;959;-76
2021/12/19 12:09:24;;;;;;;;;;;;;;;21.58;21.98;97563.25;4958661;29;1023;-76
2021/12/19 12:12:10;;;;;;;;;;;;;;;21.29;22.55;97555.66;4939292;29;1899;-76
2021/12/19 12:14:41;;;;;;;;;;;;;;;20.90;23.08;97558.97;4939540;29;1024;-76
2021/12/19 12:17:15;;;;;;;;;;;;;;;20.89;23.14;97534.75;4939813;29;1048;-76
2021/12/19 12:19:48;;;;;;;;;;;;;;;21.46;22.17;97532.94;4939104;29;1043;-76
2021/12/19 12:25:11;;;;;;;;;;;;;;;21.07;22.61;97518.78;4939402;29;1031;-76
2021/12/19 12:27:40;;;;;;;;;;;;;;;21.28;22.54;97500.31;4939749;29;980;-76
2021/12/19 12:30:07;;;;;;;;;;;;;;;21.37;22.18;97494.00;4939498;29;956;-76
2021/12/19 12:32:32;;;;;;;;;;;;;;;21.02;22.46;97481.78;5004186;28;1977;-76
2021/12/19 12:34:58;;;;;;;;;;;;;;;21.83;21.67;97477.47;5016846;28;1066;-76
2021/12/19 12:37:23;;;;;;;;;;;;;;;21.69;21.71;97475.91;5017210;28;1079;-76
2021/12/19 12:40:12;;;;;;;;;;;;;;;21.53;22.03;97476.88;5032431;28;1012;-76
2021/12/19 12:42:54;;;;;;;;;;;;;;;22.05;21.35;97471.81;5076675;28;1069;-75
2021/12/19 12:45:19;;;;;;;;;;;;;;;21.43;22.01;97465.91;5075835;28;1038;-76
2021/12/19 12:47:47;;;;;;;;;;;;;;;21.80;21.47;97456.50;5076497;28;1146;-76
2021/12/19 12:50:12;;;;;;;;;;;;;;;21.52;21.97;97461.13;5096106;28;1053;-76
2021/12/19 12:52:39;;;;;;;;;;;;;;;21.56;22.08;97463.84;5097390;28;1910;-76
2021/12/19 12:55:04;;;;;;;;;;;;;;;21.83;21.75;97455.59;5098470;28;1119;-76
2021/12/19 12:57:30;;;;;;;;;;;;;;;21.52;21.94;97458.31;5098876;28;1029;-76
2021/12/19 12:59:58;;;;;;;;;;;;;;;21.59;21.75;97462.94;5098852;28;893;-76
2021/12/19 13:02:30;;;;;;;;;;;;;;;21.69;21.77;97461.75;5098890;28;994;-76
2021/12/19 13:04:59;;;;;;;;;;;;;;;20.80;22.78;97457.03;5075982;28;1101;-76
2021/12/19 13:07:26;;;;;;;;;;;;;;;21.12;22.61;97448.75;5075919;28;970;-76
2021/12/19 13:09:54;;;;;;;;;;;;;;;21.29;22.30;97445.31;5025563;28;989;-76
2021/12/19 13:12:29;;;;;;;;;;;;;;;21.65;22.05;97448.97;5075546;28;1913;-76
2021/12/19 13:14:58;;;;;;;;;;;;;;;21.65;21.97;97444.09;5075620;28;1088;-76
2021/12/19 13:17:27;;;;;;;;;;;;;;;21.72;21.92;97438.19;5075879;28;954;-76
2021/12/19 13:20:05;;;;;;;;;;;;;;;21.68;21.73;97422.59;5042197;28;1017;-76
2021/12/19 13:22:37;;;;;;;;;;;;;;;21.31;22.42;97414.56;5075549;28;954;-76
2021/12/19 13:25:07;;;;;;;;;;;;;;;21.20;22.42;97414.13;5075580;28;1028;-76
2021/12/19 13:27:33;;;;;;;;;;;;;;;21.11;22.46;97399.09;5075782;28;1008;-76
2021/12/19 13:30:08;;;;;;;;;;;;;;;21.45;22.39;97412.47;5042685;28;971;-76
2021/12/19 13:32:35;;;;;;;;;;;;;;;21.15;22.71;97392.06;5075662;28;1985;-76
2021/12/19 13:35:01;;;;;;;;;;;;;;;21.00;22.79;97393.78;5078101;28;979;-77
2021/12/19 13:37:26;;;;;;;;;;;;;;;21.03;22.86;97381.56;5098067;28;943;-76
2021/12/19 13:40:03;;;;;;;;;;;;;;;21.27;22.61;97385.56;5098064;28;1038;-76
2021/12/19 13:42:47;;;;;;;;;;;;;;;21.60;21.93;97373.91;5098019;28;1060;-76
2021/12/19 13:45:29;;;;;;;;;;;;;;;21.39;22.22;97364.16;5097727;28;942;-76
2021/12/19 13:47:55;;;;;;;;;;;;;;;21.15;22.24;97355.28;5097833;28;925;-76
2021/12/19 13:50:20;;;;;;;;;;;;;;;21.22;22.24;97354.25;5097951;28;971;-76
2021/12/19 13:52:45;;;;;;;;;;;;;;;21.39;22.32;97360.53;5097472;28;1913;-75
2021/12/19 13:55:11;;;;;;;;;;;;;;;21.78;21.80;97357.06;5078395;28;1032;-75
2021/12/19 13:57:37;;;;;;;;;;;;;;;22.10;21.48;97352.22;5044453;28;1027;-76
2021/12/19 14:00:03;;;;;;;;;;;;;;;21.43;22.21;97349.88;5096760;28;1561;-76
2021/12/19 14:02:40;;;;;;;;;;;;;;;21.49;22.22;97350.88;5079644;28;1069;-76
2021/12/19 14:05:24;;;;;;;;;;;;;;;21.72;21.75;97364.56;5097348;28;899;-76
2021/12/19 14:07:49;;;;;;;;;;;;;;;21.44;21.98;97342.97;5097329;28;1036;-76
2021/12/19 14:10:21;;;;;;;;;;;;;;;21.72;21.93;97346.81;5096182;28;934;-76
2021/12/19 14:13:05;;;;;;;;;;;;;;;21.23;22.33;97348.09;5097306;28;1921;-76